createdAt,value
2023-03-22T00:02:17.246Z,46.93
2023-03-22T00:04:44.017Z,47.33
2023-03-22T00:07:16.821Z,44.63
2023-03-22T00:09:45.737Z,57.97
2023-03-22T00:12:13.866Z,47.23
2023-03-22T00:14:41.732Z,44.53
2023-03-22T00:17:08.941Z,47.10
2023-03-22T00:19:35.969Z,46.47
2023-03-22T00:22:06.419Z,44.17
2023-03-22T00:24:40.114Z,47.73
2023-03-22T00:27:06.988Z,46.23
2023-03-22T00:29:34.948Z,47.00
2023-03-22T00:32:07.640Z,50.27
2023-03-22T00:34:36.766Z,43.47
2023-03-22T00:37:09.498Z,44.03
2023-03-22T00:39:38.725Z,40.53
2023-03-22T00:42:08.855Z,46.20
2023-03-22T00:44:36.139Z,45.63
2023-03-22T00:47:03.153Z,47.77
2023-03-22T00:49:31.301Z,52.00
2023-03-22T00:51:58.382Z,48.73
2023-03-22T00:54:25.580Z,50.93
2023-03-22T00:56:52.910Z,51.60
2023-03-22T00:59:23.552Z,48.40
2023-03-22T01:01:55.649Z,45.97
2023-03-22T01:04:28.920Z,49.30
2023-03-22T01:06:59.383Z,48.63
2023-03-22T01:09:29.168Z,45.57
2023-03-22T01:11:56.554Z,47.47
2023-03-22T01:14:25.586Z,44.43
2023-03-22T01:16:57.628Z,46.47
2023-03-22T01:19:25.284Z,43.43
2023-03-22T01:21:52.129Z,48.20
2023-03-22T01:24:22.414Z,46.27
2023-03-22T01:26:49.159Z,42.17
2023-03-22T01:29:16.119Z,50.10
2023-03-22T01:31:43.969Z,42.77
2023-03-22T01:34:11.117Z,43.50
2023-03-22T01:36:41.138Z,42.40
2023-03-22T01:39:09.525Z,44.17
2023-03-22T01:41:37.892Z,40.93
2023-03-22T01:44:08.320Z,44.93
2023-03-22T01:46:35.477Z,45.77
2023-03-22T01:49:04.773Z,43.03
2023-03-22T01:51:32.040Z,45.23
2023-03-22T01:54:06.504Z,42.53
2023-03-22T01:56:41.840Z,41.93
2023-03-22T01:59:12.665Z,39.87
2023-03-22T02:01:47.968Z,41.97
2023-03-22T02:04:20.078Z,42.37
2023-03-22T02:06:48.345Z,43.30
2023-03-22T02:09:22.389Z,40.13
2023-03-22T02:12:17.822Z,42.10
2023-03-22T02:15:18.275Z,40.97
2023-03-22T02:18:16.504Z,37.63
2023-03-22T02:21:21.939Z,39.80
2023-03-22T02:24:25.790Z,39.63
2023-03-22T02:27:21.927Z,36.47
2023-03-22T02:30:29.887Z,37.47
2023-03-22T02:33:18.449Z,37.60
2023-03-22T02:36:34.698Z,35.17
2023-03-22T02:39:13.946Z,31.83
2023-03-22T02:42:09.093Z,35.93
2023-03-22T02:44:42.250Z,33.83
2023-03-22T02:47:24.115Z,31.80
2023-03-22T02:50:10.423Z,34.63
2023-03-22T02:53:05.768Z,34.40
2023-03-22T02:55:46.102Z,32.20
2023-03-22T02:58:46.937Z,33.40
2023-03-22T03:01:22.590Z,28.27
2023-03-22T03:03:52.977Z,30.83
2023-03-22T03:06:22.822Z,31.37
2023-03-22T03:08:51.576Z,28.27
2023-03-22T03:11:19.340Z,28.03
2023-03-22T03:13:50.959Z,29.30
2023-03-22T03:16:23.049Z,26.47
2023-03-22T03:19:19.139Z,29.10
2023-03-22T03:22:01.610Z,25.10
2023-03-22T03:24:39.808Z,27.67
2023-03-22T03:27:17.018Z,27.57
2023-03-22T03:29:56.595Z,27.67
2023-03-22T03:32:35.747Z,28.47
2023-03-22T03:35:22.644Z,27.10
2023-03-22T03:38:10.945Z,26.10
2023-03-22T03:40:45.665Z,27.00
2023-03-22T03:43:13.394Z,26.83
2023-03-22T03:45:43.068Z,28.27
2023-03-22T03:48:23.444Z,29.30
2023-03-22T03:50:54.190Z,26.27
2023-03-22T03:53:23.294Z,27.57
2023-03-22T03:55:53.295Z,24.87
2023-03-22T03:58:25.945Z,22.97
2023-03-22T04:01:05.322Z,24.43
2023-03-22T04:03:59.564Z,25.80
2023-03-22T04:06:29.077Z,23.53
2023-03-22T04:08:58.104Z,24.77
2023-03-22T04:11:30.945Z,24.00
2023-03-22T04:13:57.688Z,22.87
2023-03-22T04:16:25.214Z,23.63
2023-03-22T04:18:53.474Z,27.43
2023-03-22T04:21:23.375Z,20.73
2023-03-22T04:23:50.196Z,25.57
2023-03-22T04:26:18.004Z,20.93
2023-03-22T04:28:44.869Z,27.60
2023-03-22T04:31:11.673Z,22.90
2023-03-22T04:33:39.527Z,22.90
2023-03-22T04:36:10.391Z,19.50
2023-03-22T04:38:39.527Z,19.90
2023-03-22T04:41:07.068Z,21.67
2023-03-22T04:43:35.226Z,19.37
2023-03-22T04:46:02.587Z,22.00
2023-03-22T04:48:29.762Z,19.80
2023-03-22T04:50:57.398Z,20.77
2023-03-22T04:53:27.433Z,24.73
2023-03-22T04:55:57.255Z,23.37
2023-03-22T04:58:25.669Z,22.33
2023-03-22T05:00:53.530Z,20.57
2023-03-22T05:03:21.663Z,21.93
2023-03-22T05:06:00.139Z,18.00
2023-03-22T05:08:28.309Z,17.90
2023-03-22T05:10:57.324Z,18.13
2023-03-22T05:13:26.934Z,24.53
2023-03-22T05:15:54.459Z,21.87
2023-03-22T05:18:26.388Z,19.30
2023-03-22T05:20:55.762Z,20.40
2023-03-22T05:23:24.129Z,21.40
2023-03-22T05:25:52.900Z,20.53
2023-03-22T05:28:21.499Z,19.47
2023-03-22T05:30:49.715Z,18.83
2023-03-22T05:33:21.679Z,20.63
2023-03-22T05:35:50.847Z,18.87
2023-03-22T05:38:17.636Z,17.97
2023-03-22T05:40:45.307Z,20.03
2023-03-22T05:43:12.696Z,16.43
2023-03-22T05:45:39.682Z,14.50
2023-03-22T05:48:07.020Z,15.20
2023-03-22T05:50:35.125Z,18.10
2023-03-22T05:53:02.264Z,13.37
2023-03-22T05:55:30.362Z,18.33
2023-03-22T05:57:57.489Z,13.67
2023-03-22T06:00:24.566Z,15.77
2023-03-22T06:02:56.645Z,15.63
2023-03-22T06:05:24.511Z,15.63
2023-03-22T06:07:52.245Z,16.00
2023-03-22T06:10:19.291Z,13.97
2023-03-22T06:12:46.079Z,14.00
2023-03-22T06:15:12.926Z,14.93
2023-03-22T06:17:39.679Z,15.90
2023-03-22T06:20:10.015Z,14.57
2023-03-22T06:22:38.986Z,14.43
2023-03-22T06:25:08.406Z,14.63
2023-03-22T06:27:35.616Z,15.40
2023-03-22T06:30:02.526Z,13.10
2023-03-22T06:32:29.329Z,17.43
2023-03-22T06:34:56.606Z,15.27
2023-03-22T06:37:23.668Z,15.23
2023-03-22T06:39:51.927Z,13.10
2023-03-22T06:42:19.253Z,14.07
2023-03-22T06:44:46.171Z,14.20
2023-03-22T06:47:13.176Z,15.77
2023-03-22T06:49:40.399Z,14.70
2023-03-22T06:52:07.357Z,16.30
2023-03-22T06:54:34.421Z,14.77
2023-03-22T06:57:01.420Z,14.93
2023-03-22T06:59:28.553Z,14.60
2023-03-22T07:01:55.402Z,15.73
2023-03-22T07:04:22.490Z,21.20
2023-03-22T07:06:49.294Z,15.73
2023-03-22T07:09:16.413Z,20.73
2023-03-22T07:11:43.265Z,18.00
2023-03-22T07:14:10.290Z,17.60
2023-03-22T07:16:37.090Z,18.97
2023-03-22T07:19:04.324Z,20.70
2023-03-22T07:21:31.266Z,19.27
2023-03-22T07:23:58.297Z,17.13
2023-03-22T07:26:26.429Z,20.63
2023-03-22T07:28:53.588Z,19.77
2023-03-22T07:31:20.547Z,21.57
2023-03-22T07:33:48.279Z,16.80
2023-03-22T07:36:15.667Z,16.93
2023-03-22T07:38:42.611Z,21.30
2023-03-22T07:41:09.531Z,18.00
2023-03-22T07:43:50.859Z,15.83
2023-03-22T07:46:20.156Z,19.33
2023-03-22T07:48:46.990Z,19.07
2023-03-22T07:51:13.756Z,18.80
2023-03-22T07:53:40.635Z,18.97
2023-03-22T07:56:07.926Z,16.80
2023-03-22T07:58:35.176Z,17.03
2023-03-22T08:01:09.104Z,24.33
2023-03-22T08:03:37.668Z,18.00
2023-03-22T08:06:07.685Z,17.80
2023-03-22T08:08:37.033Z,18.70
2023-03-22T08:11:05.658Z,19.63
2023-03-22T08:13:32.997Z,16.73
2023-03-22T08:15:59.910Z,18.50
2023-03-22T08:18:26.799Z,23.57
2023-03-22T08:20:58.978Z,20.10
2023-03-22T08:23:40.412Z,22.73
2023-03-22T08:26:07.887Z,23.50
2023-03-22T08:28:35.783Z,21.37
2023-03-22T08:31:09.770Z,19.07
2023-03-22T08:33:36.558Z,21.57
2023-03-22T08:36:09.233Z,19.97
2023-03-22T08:38:36.229Z,18.73
2023-03-22T08:41:03.697Z,23.63
2023-03-22T08:43:30.627Z,20.63
2023-03-22T08:45:57.717Z,20.47
2023-03-22T08:48:25.104Z,18.70
2023-03-22T08:50:52.006Z,21.23
2023-03-22T08:53:18.729Z,22.17
2023-03-22T08:55:45.599Z,20.13
2023-03-22T08:58:14.297Z,19.60
2023-03-22T09:00:48.588Z,21.47
2023-03-22T09:03:16.702Z,19.27
2023-03-22T09:05:43.846Z,22.27
2023-03-22T09:08:18.530Z,23.10
2023-03-22T09:10:52.113Z,24.40
2023-03-22T09:13:19.765Z,21.87
2023-03-22T09:15:47.041Z,20.77
2023-03-22T09:18:14.520Z,23.63
2023-03-22T09:20:41.836Z,18.63
2023-03-22T09:23:10.060Z,19.93
2023-03-22T09:25:36.867Z,19.63
2023-03-22T09:28:04.574Z,21.23
2023-03-22T09:30:31.434Z,20.73
2023-03-22T09:32:58.164Z,22.27
2023-03-22T09:35:25.026Z,17.47
2023-03-22T09:37:54.401Z,20.07
2023-03-22T09:40:25.002Z,18.53
2023-03-22T09:42:55.678Z,15.77
2023-03-22T09:45:38.550Z,17.43
2023-03-22T09:48:12.591Z,19.60
2023-03-22T09:50:49.289Z,18.77
2023-03-22T09:53:17.804Z,18.10
2023-03-22T09:56:17.146Z,18.27
2023-03-22T09:58:58.911Z,17.37
2023-03-22T10:01:41.064Z,19.87
2023-03-22T10:04:26.416Z,17.93
2023-03-22T10:07:24.328Z,17.37
2023-03-22T10:10:07.291Z,16.97
2023-03-22T10:12:47.573Z,20.10
2023-03-22T10:15:24.203Z,20.27
2023-03-22T10:17:55.020Z,18.43
2023-03-22T10:20:34.343Z,16.03
2023-03-22T10:23:04.060Z,18.33
2023-03-22T10:25:36.998Z,19.10
2023-03-22T10:28:34.434Z,16.55
2023-03-22T10:31:03.695Z,17.50
2023-03-22T10:33:50.276Z,19.37
2023-03-22T10:36:20.232Z,17.20
2023-03-22T10:38:54.714Z,15.00
2023-03-22T10:41:24.391Z,16.53
2023-03-22T10:43:58.430Z,16.93
2023-03-22T10:46:28.525Z,14.40
2023-03-22T10:48:59.750Z,16.70
2023-03-22T10:51:35.940Z,21.13
2023-03-22T10:54:03.435Z,19.27
2023-03-22T10:56:31.903Z,18.03
2023-03-22T10:58:58.691Z,17.30
2023-03-22T11:01:41.587Z,17.03
2023-03-22T11:04:16.190Z,16.50
2023-03-22T11:07:00.859Z,17.77
2023-03-22T11:09:28.642Z,16.60
2023-03-22T11:11:59.232Z,16.53
2023-03-22T11:14:28.961Z,18.87
2023-03-22T11:17:00.332Z,15.97
2023-03-22T11:19:32.176Z,20.83
2023-03-22T11:22:00.488Z,20.40
2023-03-22T11:24:31.570Z,17.27
2023-03-22T11:27:22.956Z,20.13
2023-03-22T11:29:52.474Z,18.17
2023-03-22T11:32:27.804Z,19.17
2023-03-22T11:35:17.847Z,18.00
2023-03-22T11:37:50.276Z,21.90
2023-03-22T11:40:24.028Z,19.55
2023-03-22T11:43:04.235Z,17.57
2023-03-22T11:45:35.285Z,18.20
2023-03-22T11:48:07.083Z,15.77
2023-03-22T11:50:37.788Z,20.27
2023-03-22T11:53:11.249Z,17.80
2023-03-22T11:55:38.875Z,17.10
2023-03-22T11:58:06.949Z,18.80
2023-03-22T12:00:39.346Z,19.63
2023-03-22T12:03:13.889Z,22.63
2023-03-22T12:05:44.663Z,18.40
2023-03-22T12:08:42.868Z,24.33
2023-03-22T12:11:25.611Z,19.05
2023-03-22T12:13:57.976Z,17.20
2023-03-22T12:16:46.487Z,23.33
2023-03-22T12:19:38.370Z,19.83
2023-03-22T12:22:21.061Z,19.10
2023-03-22T12:24:47.911Z,18.83
2023-03-22T12:27:30.789Z,19.30
2023-03-22T12:30:23.976Z,18.63
2023-03-22T12:33:02.905Z,20.17
2023-03-22T12:35:34.918Z,26.27
2023-03-22T12:38:28.242Z,19.48
2023-03-22T12:41:00.551Z,16.85
2023-03-22T12:43:55.836Z,17.75
2023-03-22T12:46:33.699Z,16.48
2023-03-22T12:49:19.733Z,18.30
2023-03-22T12:51:48.790Z,20.50
2023-03-22T12:54:17.929Z,17.02
2023-03-22T12:56:46.493Z,17.65
2023-03-22T12:59:26.399Z,18.42
2023-03-22T13:01:56.685Z,17.23
2023-03-22T13:04:45.862Z,15.18
2023-03-22T13:07:37.224Z,20.20
2023-03-22T13:10:34.046Z,16.90
2023-03-22T13:13:18.008Z,15.85
2023-03-22T13:16:09.212Z,16.02
2023-03-22T13:18:36.370Z,16.70
2023-03-22T13:21:16.819Z,16.67
2023-03-22T13:23:54.610Z,15.95
2023-03-22T13:26:33.280Z,15.75
2023-03-22T13:29:29.895Z,16.70
2023-03-22T13:32:01.817Z,14.65
2023-03-22T13:34:51.915Z,17.30
2023-03-22T13:37:55.960Z,18.55
2023-03-22T13:40:39.604Z,17.02
2023-03-22T13:43:30.866Z,23.95
2023-03-22T13:46:04.145Z,16.83
2023-03-22T13:48:53.409Z,17.75
2023-03-22T13:51:22.951Z,16.00
2023-03-22T13:54:04.650Z,14.05
2023-03-22T13:56:52.330Z,16.25
2023-03-22T13:59:29.606Z,16.25
2023-03-22T14:02:23.874Z,16.02
2023-03-22T14:04:56.419Z,22.92
2023-03-22T14:07:31.707Z,18.25
2023-03-22T14:10:03.443Z,18.02
2023-03-22T14:12:50.571Z,18.25
2023-03-22T14:15:21.488Z,19.50
2023-03-22T14:17:50.848Z,20.80
2023-03-22T14:20:20.818Z,27.13
